sensor_id;sensor_type;location;lat;lon;timestamp;pressure;altitude;pressure_sealevel;temperature;humidity
77081;BME280;66009;53.150;18.160;2023-04-06T00:00:09;102009.95;;;-2.13;65.06
77081;BME280;66009;53.150;18.160;2023-04-06T00:02:56;102013.05;;;-2.10;65.35
77081;BME280;66009;53.150;18.160;2023-04-06T00:05:22;102006.27;;;-1.99;64.92
77081;BME280;66009;53.150;18.160;2023-04-06T00:07:49;102005.05;;;-1.94;64.72
77081;BME280;66009;53.150;18.160;2023-04-06T00:10:16;102003.94;;;-1.89;64.84
77081;BME280;66009;53.150;18.160;2023-04-06T00:12:43;102004.56;;;-1.84;64.95
77081;BME280;66009;53.150;18.160;2023-04-06T00:15:10;102008.46;;;-1.78;64.69
77081;BME280;66009;53.150;18.160;2023-04-06T00:17:37;102005.67;;;-1.76;64.69
77081;BME280;66009;53.150;18.160;2023-04-06T00:20:04;102006.27;;;-1.72;65.01
77081;BME280;66009;53.150;18.160;2023-04-06T00:22:31;102005.60;;;-1.69;64.94
77081;BME280;66009;53.150;18.160;2023-04-06T00:24:57;102007.92;;;-1.67;65.07
77081;BME280;66009;53.150;18.160;2023-04-06T00:27:24;102008.02;;;-1.65;65.14
77081;BME280;66009;53.150;18.160;2023-04-06T00:29:51;102005.88;;;-1.64;64.99
77081;BME280;66009;53.150;18.160;2023-04-06T00:32:18;102007.50;;;-1.63;64.82
77081;BME280;66009;53.150;18.160;2023-04-06T00:34:44;102005.70;;;-1.61;64.75
77081;BME280;66009;53.150;18.160;2023-04-06T00:37:11;102005.14;;;-1.62;64.74
77081;BME280;66009;53.150;18.160;2023-04-06T00:39:38;102006.32;;;-1.62;64.82
77081;BME280;66009;53.150;18.160;2023-04-06T00:42:11;102004.46;;;-1.64;64.97
77081;BME280;66009;53.150;18.160;2023-04-06T00:44:41;102003.29;;;-1.67;65.01
77081;BME280;66009;53.150;18.160;2023-04-06T00:47:09;102000.23;;;-1.69;64.91
77081;BME280;66009;53.150;18.160;2023-04-06T00:49:35;102003.41;;;-1.71;64.99
77081;BME280;66009;53.150;18.160;2023-04-06T00:52:02;102002.62;;;-1.73;65.28
77081;BME280;66009;53.150;18.160;2023-04-06T00:54:29;102001.88;;;-1.76;65.24
77081;BME280;66009;53.150;18.160;2023-04-06T00:56:56;101995.80;;;-1.80;65.42
77081;BME280;66009;53.150;18.160;2023-04-06T00:59:23;101999.48;;;-1.82;65.25
77081;BME280;66009;53.150;18.160;2023-04-06T01:01:50;102000.00;;;-1.76;65.04
77081;BME280;66009;53.150;18.160;2023-04-06T01:04:28;101997.30;;;-1.75;64.89
77081;BME280;66009;53.150;18.160;2023-04-06T01:06:55;101997.26;;;-1.76;64.89
77081;BME280;66009;53.150;18.160;2023-04-06T01:09:24;101997.02;;;-1.77;64.79
77081;BME280;66009;53.150;18.160;2023-04-06T01:11:52;101996.44;;;-1.78;64.96
77081;BME280;66009;53.150;18.160;2023-04-06T01:14:20;101997.86;;;-1.81;64.91
77081;BME280;66009;53.150;18.160;2023-04-06T01:16:58;101996.52;;;-1.86;65.06
77081;BME280;66009;53.150;18.160;2023-04-06T01:19:29;101996.22;;;-1.92;65.04
77081;BME280;66009;53.150;18.160;2023-04-06T01:21:56;101991.45;;;-1.97;65.12
77081;BME280;66009;53.150;18.160;2023-04-06T01:24:32;101991.08;;;-2.03;65.25
77081;BME280;66009;53.150;18.160;2023-04-06T01:27:12;101992.13;;;-2.09;65.23
77081;BME280;66009;53.150;18.160;2023-04-06T01:30:01;101996.59;;;-2.15;65.31
77081;BME280;66009;53.150;18.160;2023-04-06T01:32:41;101990.60;;;-2.21;65.41
77081;BME280;66009;53.150;18.160;2023-04-06T01:35:08;101991.91;;;-2.25;65.45
77081;BME280;66009;53.150;18.160;2023-04-06T01:37:37;101989.80;;;-2.29;65.84
77081;BME280;66009;53.150;18.160;2023-04-06T01:40:05;101987.38;;;-2.32;65.81
77081;BME280;66009;53.150;18.160;2023-04-06T01:42:44;101991.44;;;-2.37;66.00
77081;BME280;66009;53.150;18.160;2023-04-06T01:45:12;101994.18;;;-2.39;66.03
77081;BME280;66009;53.150;18.160;2023-04-06T01:47:40;101994.67;;;-2.43;66.29
77081;BME280;66009;53.150;18.160;2023-04-06T01:50:07;101995.34;;;-2.46;66.28
77081;BME280;66009;53.150;18.160;2023-04-06T01:52:37;101990.77;;;-2.51;66.18
77081;BME280;66009;53.150;18.160;2023-04-06T01:55:04;101988.55;;;-2.57;66.33
77081;BME280;66009;53.150;18.160;2023-04-06T01:57:52;101991.09;;;-2.60;66.29
77081;BME280;66009;53.150;18.160;2023-04-06T02:00:29;101990.69;;;-2.55;66.05
77081;BME280;66009;53.150;18.160;2023-04-06T02:02:57;101992.52;;;-2.57;66.09
77081;BME280;66009;53.150;18.160;2023-04-06T02:05:26;101995.44;;;-2.57;66.05
77081;BME280;66009;53.150;18.160;2023-04-06T02:07:53;101995.86;;;-2.55;66.15
77081;BME280;66009;53.150;18.160;2023-04-06T02:10:23;101994.80;;;-2.52;66.37
77081;BME280;66009;53.150;18.160;2023-04-06T02:12:50;101994.55;;;-2.51;66.39
77081;BME280;66009;53.150;18.160;2023-04-06T02:15:22;101996.24;;;-2.48;66.44
77081;BME280;66009;53.150;18.160;2023-04-06T02:17:48;101992.86;;;-2.45;66.46
77081;BME280;66009;53.150;18.160;2023-04-06T02:20:15;101992.79;;;-2.40;66.59
77081;BME280;66009;53.150;18.160;2023-04-06T02:22:41;101989.27;;;-2.36;66.37
77081;BME280;66009;53.150;18.160;2023-04-06T02:25:08;101993.21;;;-2.33;66.45
77081;BME280;66009;53.150;18.160;2023-04-06T02:27:36;101985.58;;;-2.31;66.45
77081;BME280;66009;53.150;18.160;2023-04-06T02:30:03;101985.24;;;-2.31;66.39
77081;BME280;66009;53.150;18.160;2023-04-06T02:32:30;101989.48;;;-2.29;66.46
77081;BME280;66009;53.150;18.160;2023-04-06T02:34:57;101988.65;;;-2.28;66.66
77081;BME280;66009;53.150;18.160;2023-04-06T02:37:24;101988.94;;;-2.26;66.91
77081;BME280;66009;53.150;18.160;2023-04-06T02:39:50;101992.52;;;-2.23;66.81
77081;BME280;66009;53.150;18.160;2023-04-06T02:42:17;101999.34;;;-2.21;66.81
77081;BME280;66009;53.150;18.160;2023-04-06T02:44:44;102001.30;;;-2.20;66.73
77081;BME280;66009;53.150;18.160;2023-04-06T02:47:11;101999.99;;;-2.19;66.78
77081;BME280;66009;53.150;18.160;2023-04-06T02:49:38;101997.02;;;-2.17;66.63
77081;BME280;66009;53.150;18.160;2023-04-06T02:52:04;101995.38;;;-2.04;66.48
77081;BME280;66009;53.150;18.160;2023-04-06T02:54:34;101995.98;;;-1.96;66.36
77081;BME280;66009;53.150;18.160;2023-04-06T02:57:01;102002.38;;;-1.89;66.34
77081;BME280;66009;53.150;18.160;2023-04-06T02:59:35;102004.36;;;-1.81;66.14
77081;BME280;66009;53.150;18.160;2023-04-06T03:02:08;102002.87;;;-1.74;66.48
77081;BME280;66009;53.150;18.160;2023-04-06T03:04:34;102002.46;;;-1.69;66.25
77081;BME280;66009;53.150;18.160;2023-04-06T03:07:02;102002.63;;;-1.66;66.26
77081;BME280;66009;53.150;18.160;2023-04-06T03:09:37;102002.23;;;-1.64;66.29
77081;BME280;66009;53.150;18.160;2023-04-06T03:12:05;102002.09;;;-1.64;66.09
77081;BME280;66009;53.150;18.160;2023-04-06T03:14:35;102003.16;;;-1.63;66.19
77081;BME280;66009;53.150;18.160;2023-04-06T03:17:03;102000.27;;;-1.63;66.27
77081;BME280;66009;53.150;18.160;2023-04-06T03:19:29;101997.91;;;-1.61;66.34
77081;BME280;66009;53.150;18.160;2023-04-06T03:21:57;102006.73;;;-1.61;66.41
77081;BME280;66009;53.150;18.160;2023-04-06T03:24:24;102003.86;;;-1.63;66.17
77081;BME280;66009;53.150;18.160;2023-04-06T03:26:50;102005.66;;;-1.65;66.20
77081;BME280;66009;53.150;18.160;2023-04-06T03:29:18;102004.42;;;-1.65;66.79
77081;BME280;66009;53.150;18.160;2023-04-06T03:31:44;102000.78;;;-1.66;66.60
77081;BME280;66009;53.150;18.160;2023-04-06T03:34:40;101997.13;;;-1.66;66.83
77081;BME280;66009;53.150;18.160;2023-04-06T03:37:08;101999.51;;;-1.67;66.85
77081;BME280;66009;53.150;18.160;2023-04-06T03:39:35;101997.77;;;-1.67;66.81
77081;BME280;66009;53.150;18.160;2023-04-06T03:42:03;101998.59;;;-1.68;66.80
77081;BME280;66009;53.150;18.160;2023-04-06T03:44:35;102001.42;;;-1.70;66.60
77081;BME280;66009;53.150;18.160;2023-04-06T03:47:01;102001.42;;;-1.70;66.88
77081;BME280;66009;53.150;18.160;2023-04-06T03:49:28;102006.10;;;-1.59;66.61
77081;BME280;66009;53.150;18.160;2023-04-06T03:51:56;102008.41;;;-1.55;66.69
77081;BME280;66009;53.150;18.160;2023-04-06T03:54:23;102010.00;;;-1.51;66.96
77081;BME280;66009;53.150;18.160;2023-04-06T03:56:49;102010.34;;;-1.45;66.77
77081;BME280;66009;53.150;18.160;2023-04-06T03:59:16;102010.83;;;-1.39;66.57
77081;BME280;66009;53.150;18.160;2023-04-06T04:01:43;102010.16;;;-1.42;66.84
77081;BME280;66009;53.150;18.160;2023-04-06T04:04:10;102016.55;;;-1.45;66.80
77081;BME280;66009;53.150;18.160;2023-04-06T04:06:36;102018.41;;;-1.45;67.04
77081;BME280;66009;53.150;18.160;2023-04-06T04:09:03;102017.45;;;-1.44;66.96
77081;BME280;66009;53.150;18.160;2023-04-06T04:11:29;102020.91;;;-1.44;66.99
77081;BME280;66009;53.150;18.160;2023-04-06T04:13:58;102021.27;;;-1.44;67.05
77081;BME280;66009;53.150;18.160;2023-04-06T04:16:24;102018.84;;;-1.44;67.22
77081;BME280;66009;53.150;18.160;2023-04-06T04:18:51;102024.15;;;-1.47;67.20
77081;BME280;66009;53.150;18.160;2023-04-06T04:21:17;102025.48;;;-1.48;67.05
77081;BME280;66009;53.150;18.160;2023-04-06T04:23:44;102024.14;;;-1.48;67.54
77081;BME280;66009;53.150;18.160;2023-04-06T04:26:11;102023.69;;;-1.47;67.52
77081;BME280;66009;53.150;18.160;2023-04-06T04:28:38;102021.00;;;-1.45;67.37
77081;BME280;66009;53.150;18.160;2023-04-06T04:31:04;102025.73;;;-1.44;67.50
77081;BME280;66009;53.150;18.160;2023-04-06T04:33:32;102024.89;;;-1.43;67.83
77081;BME280;66009;53.150;18.160;2023-04-06T04:36:01;102028.34;;;-1.40;67.62
77081;BME280;66009;53.150;18.160;2023-04-06T04:38:29;102021.44;;;-1.27;67.30
77081;BME280;66009;53.150;18.160;2023-04-06T04:40:56;102017.34;;;-1.20;67.42
77081;BME280;66009;53.150;18.160;2023-04-06T04:43:22;102017.66;;;-1.14;67.34
77081;BME280;66009;53.150;18.160;2023-04-06T04:45:49;102014.77;;;-1.10;67.46
77081;BME280;66009;53.150;18.160;2023-04-06T04:48:34;102019.75;;;-1.11;67.32
77081;BME280;66009;53.150;18.160;2023-04-06T04:51:04;102025.77;;;-1.08;67.70
77081;BME280;66009;53.150;18.160;2023-04-06T04:53:39;102026.17;;;-1.03;67.74
77081;BME280;66009;53.150;18.160;2023-04-06T04:56:15;102021.14;;;-0.98;67.56
77081;BME280;66009;53.150;18.160;2023-04-06T04:58:41;102021.66;;;-0.94;67.77
77081;BME280;66009;53.150;18.160;2023-04-06T05:01:08;102023.38;;;-0.94;67.72
77081;BME280;66009;53.150;18.160;2023-04-06T05:03:36;102025.77;;;-0.91;67.74
77081;BME280;66009;53.150;18.160;2023-04-06T05:06:06;102026.46;;;-0.88;67.81
77081;BME280;66009;53.150;18.160;2023-04-06T05:08:34;102034.65;;;-0.84;67.98
77081;BME280;66009;53.150;18.160;2023-04-06T05:11:01;102034.48;;;-0.80;67.95
77081;BME280;66009;53.150;18.160;2023-04-06T05:13:30;102034.00;;;-0.76;67.78
77081;BME280;66009;53.150;18.160;2023-04-06T05:15:58;102037.20;;;-0.71;67.86
77081;BME280;66009;53.150;18.160;2023-04-06T05:18:30;102041.13;;;-0.55;67.63
77081;BME280;66009;53.150;18.160;2023-04-06T05:20:57;102039.06;;;-0.45;67.61
77081;BME280;66009;53.150;18.160;2023-04-06T05:23:29;102041.45;;;-0.35;67.36
77081;BME280;66009;53.150;18.160;2023-04-06T05:25:57;102039.33;;;-0.25;67.32
77081;BME280;66009;53.150;18.160;2023-04-06T05:28:24;102040.71;;;-0.15;67.26
77081;BME280;66009;53.150;18.160;2023-04-06T05:30:50;102040.52;;;-0.09;67.40
77081;BME280;66009;53.150;18.160;2023-04-06T05:33:18;102044.33;;;-0.05;67.17
77081;BME280;66009;53.150;18.160;2023-04-06T05:35:56;102044.98;;;0.01;67.10
77081;BME280;66009;53.150;18.160;2023-04-06T05:38:24;102041.02;;;0.08;67.31
77081;BME280;66009;53.150;18.160;2023-04-06T05:40:51;102043.20;;;0.14;67.44
77081;BME280;66009;53.150;18.160;2023-04-06T05:43:18;102043.70;;;0.21;67.26
77081;BME280;66009;53.150;18.160;2023-04-06T05:45:47;102039.30;;;0.26;67.33
77081;BME280;66009;53.150;18.160;2023-04-06T05:48:13;102037.88;;;0.29;67.18
77081;BME280;66009;53.150;18.160;2023-04-06T05:50:40;102035.43;;;0.32;67.12
77081;BME280;66009;53.150;18.160;2023-04-06T05:53:07;102033.77;;;0.37;67.13
77081;BME280;66009;53.150;18.160;2023-04-06T05:55:38;102030.79;;;0.43;67.03
77081;BME280;66009;53.150;18.160;2023-04-06T05:58:17;102034.27;;;0.51;66.93
77081;BME280;66009;53.150;18.160;2023-04-06T06:00:44;102034.79;;;0.59;67.05
77081;BME280;66009;53.150;18.160;2023-04-06T06:03:14;102032.92;;;0.67;67.23
77081;BME280;66009;53.150;18.160;2023-04-06T06:05:42;102032.89;;;0.74;67.25
77081;BME280;66009;53.150;18.160;2023-04-06T06:08:12;102033.23;;;0.81;66.94
77081;BME280;66009;53.150;18.160;2023-04-06T06:10:39;102027.58;;;0.89;66.89
77081;BME280;66009;53.150;18.160;2023-04-06T06:13:07;102034.63;;;1.08;66.72
77081;BME280;66009;53.150;18.160;2023-04-06T06:15:33;102034.04;;;1.21;66.99
77081;BME280;66009;53.150;18.160;2023-04-06T06:18:02;102031.09;;;1.33;66.84
77081;BME280;66009;53.150;18.160;2023-04-06T06:20:29;102031.32;;;1.47;66.41
77081;BME280;66009;53.150;18.160;2023-04-06T06:22:59;102028.97;;;1.60;66.21
77081;BME280;66009;53.150;18.160;2023-04-06T06:25:25;102028.81;;;1.73;66.11
77081;BME280;66009;53.150;18.160;2023-04-06T06:27:52;102028.52;;;1.86;66.11
77081;BME280;66009;53.150;18.160;2023-04-06T06:30:19;102029.50;;;2.02;66.03
77081;BME280;66009;53.150;18.160;2023-04-06T06:32:46;102027.54;;;2.17;65.82
77081;BME280;66009;53.150;18.160;2023-04-06T06:35:12;102027.72;;;2.31;65.79
77081;BME280;66009;53.150;18.160;2023-04-06T06:37:39;102027.70;;;2.43;65.67
77081;BME280;66009;53.150;18.160;2023-04-06T06:40:11;102027.20;;;2.57;65.56
77081;BME280;66009;53.150;18.160;2023-04-06T06:42:40;102021.88;;;2.72;65.21
77081;BME280;66009;53.150;18.160;2023-04-06T06:45:18;102023.86;;;2.88;64.91
77081;BME280;66009;53.150;18.160;2023-04-06T06:47:46;102022.38;;;3.04;64.59
77081;BME280;66009;53.150;18.160;2023-04-06T06:50:13;102027.70;;;3.22;64.45
77081;BME280;66009;53.150;18.160;2023-04-06T06:52:40;102027.15;;;3.40;63.80
77081;BME280;66009;53.150;18.160;2023-04-06T06:55:09;102019.72;;;3.61;63.39
77081;BME280;66009;53.150;18.160;2023-04-06T06:57:36;102020.27;;;3.82;63.24
77081;BME280;66009;53.150;18.160;2023-04-06T07:00:03;102012.98;;;4.03;62.41
77081;BME280;66009;53.150;18.160;2023-04-06T07:02:31;102010.92;;;4.26;62.00
77081;BME280;66009;53.150;18.160;2023-04-06T07:04:58;102011.25;;;4.47;61.59
77081;BME280;66009;53.150;18.160;2023-04-06T07:07:24;102011.82;;;4.66;61.16
77081;BME280;66009;53.150;18.160;2023-04-06T07:09:51;102006.93;;;4.89;60.61
77081;BME280;66009;53.150;18.160;2023-04-06T07:12:18;102007.17;;;5.15;60.23
77081;BME280;66009;53.150;18.160;2023-04-06T07:14:44;101999.73;;;5.42;58.69
77081;BME280;66009;53.150;18.160;2023-04-06T07:17:13;102004.42;;;5.61;57.46
77081;BME280;66009;53.150;18.160;2023-04-06T07:19:39;102008.78;;;5.75;56.91
77081;BME280;66009;53.150;18.160;2023-04-06T07:22:07;102011.49;;;5.86;56.82
77081;BME280;66009;53.150;18.160;2023-04-06T07:24:33;102003.97;;;5.98;56.31
77081;BME280;66009;53.150;18.160;2023-04-06T07:27:00;102003.41;;;6.10;55.59
77081;BME280;66009;53.150;18.160;2023-04-06T07:29:27;102003.49;;;6.21;54.86
77081;BME280;66009;53.150;18.160;2023-04-06T07:31:54;101998.54;;;6.33;53.70
77081;BME280;66009;53.150;18.160;2023-04-06T07:34:21;101998.48;;;6.46;53.44
77081;BME280;66009;53.150;18.160;2023-04-06T07:36:49;101996.27;;;6.64;53.37
77081;BME280;66009;53.150;18.160;2023-04-06T07:39:16;101997.10;;;6.87;52.61
77081;BME280;66009;53.150;18.160;2023-04-06T07:41:42;101990.13;;;7.21;51.90
77081;BME280;66009;53.150;18.160;2023-04-06T07:44:09;101991.63;;;7.66;51.21
77081;BME280;66009;53.150;18.160;2023-04-06T07:46:35;101982.23;;;8.22;49.43
77081;BME280;66009;53.150;18.160;2023-04-06T07:49:03;101977.16;;;8.98;48.28
77081;BME280;66009;53.150;18.160;2023-04-06T07:51:30;101975.27;;;9.67;47.37
77081;BME280;66009;53.150;18.160;2023-04-06T07:53:57;101970.45;;;10.49;45.74
77081;BME280;66009;53.150;18.160;2023-04-06T07:56:24;101973.39;;;11.16;43.82
77081;BME280;66009;53.150;18.160;2023-04-06T07:58:51;101964.00;;;11.76;42.27
77081;BME280;66009;53.150;18.160;2023-04-06T08:01:18;101965.40;;;12.24;40.76
77081;BME280;66009;53.150;18.160;2023-04-06T08:03:44;101969.27;;;12.29;39.42
77081;BME280;66009;53.150;18.160;2023-04-06T08:06:11;101969.64;;;12.20;39.52
77081;BME280;66009;53.150;18.160;2023-04-06T08:08:38;101972.27;;;12.02;39.64
77081;BME280;66009;53.150;18.160;2023-04-06T08:11:04;101969.98;;;11.71;37.86
77081;BME280;66009;53.150;18.160;2023-04-06T08:13:31;101980.94;;;11.17;37.41
77081;BME280;66009;53.150;18.160;2023-04-06T08:15:58;101977.63;;;10.73;37.46
77081;BME280;66009;53.150;18.160;2023-04-06T08:18:25;101980.44;;;10.41;38.07
77081;BME280;66009;53.150;18.160;2023-04-06T08:20:52;101971.27;;;10.13;36.81
77081;BME280;66009;53.150;18.160;2023-04-06T08:23:18;101981.23;;;9.87;38.05
77081;BME280;66009;53.150;18.160;2023-04-06T08:25:45;101982.56;;;9.59;37.28
77081;BME280;66009;53.150;18.160;2023-04-06T08:28:11;101985.15;;;9.38;37.80
77081;BME280;66009;53.150;18.160;2023-04-06T08:30:42;101981.38;;;9.29;38.42
77081;BME280;66009;53.150;18.160;2023-04-06T08:33:09;101980.63;;;9.24;38.09
77081;BME280;66009;53.150;18.160;2023-04-06T08:35:36;101981.52;;;9.26;37.84
77081;BME280;66009;53.150;18.160;2023-04-06T08:38:02;101982.23;;;9.28;37.44
77081;BME280;66009;53.150;18.160;2023-04-06T08:40:29;101985.62;;;9.33;37.47
77081;BME280;66009;53.150;18.160;2023-04-06T08:42:56;101981.73;;;9.46;37.50
77081;BME280;66009;53.150;18.160;2023-04-06T08:45:26;101980.86;;;9.63;37.28
77081;BME280;66009;53.150;18.160;2023-04-06T08:47:54;101978.74;;;9.83;37.02
77081;BME280;66009;53.150;18.160;2023-04-06T08:50:20;101976.48;;;10.07;37.27
77081;BME280;66009;53.150;18.160;2023-04-06T08:52:48;101974.15;;;10.22;36.32
77081;BME280;66009;53.150;18.160;2023-04-06T08:55:15;101975.77;;;10.27;36.44
77081;BME280;66009;53.150;18.160;2023-04-06T08:57:42;101976.41;;;10.20;36.67
77081;BME280;66009;53.150;18.160;2023-04-06T09:00:11;101977.23;;;10.14;36.44
77081;BME280;66009;53.150;18.160;2023-04-06T09:02:43;101980.14;;;10.05;36.66
77081;BME280;66009;53.150;18.160;2023-04-06T09:05:10;101975.39;;;10.02;36.61
77081;BME280;66009;53.150;18.160;2023-04-06T09:07:37;101975.83;;;9.90;36.79
77081;BME280;66009;53.150;18.160;2023-04-06T09:10:05;101975.93;;;9.81;37.23
77081;BME280;66009;53.150;18.160;2023-04-06T09:12:32;101974.48;;;9.76;37.31
77081;BME280;66009;53.150;18.160;2023-04-06T09:15:00;101973.14;;;9.83;37.14
77081;BME280;66009;53.150;18.160;2023-04-06T09:17:32;101972.94;;;10.02;36.65
77081;BME280;66009;53.150;18.160;2023-04-06T09:20:01;101968.21;;;10.53;36.20
77081;BME280;66009;53.150;18.160;2023-04-06T09:22:39;101961.92;;;11.05;35.30
77081;BME280;66009;53.150;18.160;2023-04-06T09:25:08;101959.76;;;11.51;35.33
77081;BME280;66009;53.150;18.160;2023-04-06T09:27:36;101956.68;;;12.79;34.84
77081;BME280;66009;53.150;18.160;2023-04-06T09:30:04;101949.11;;;16.04;32.80
77081;BME280;66009;53.150;18.160;2023-04-06T09:32:32;101940.77;;;17.86;30.93
77081;BME280;66009;53.150;18.160;2023-04-06T09:35:06;101936.70;;;17.85;28.65
77081;BME280;66009;53.150;18.160;2023-04-06T09:37:33;101940.40;;;17.26;28.61
77081;BME280;66009;53.150;18.160;2023-04-06T09:40:04;101940.90;;;16.53;29.05
77081;BME280;66009;53.150;18.160;2023-04-06T09:42:31;101946.67;;;15.79;29.10
77081;BME280;66009;53.150;18.160;2023-04-06T09:44:58;101952.15;;;15.21;29.49
77081;BME280;66009;53.150;18.160;2023-04-06T09:47:25;101949.30;;;14.85;29.27
77081;BME280;66009;53.150;18.160;2023-04-06T09:49:57;101950.20;;;14.52;29.95
77081;BME280;66009;53.150;18.160;2023-04-06T09:52:31;101950.84;;;14.06;29.82
77081;BME280;66009;53.150;18.160;2023-04-06T09:55:02;101955.13;;;13.57;29.97
77081;BME280;66009;53.150;18.160;2023-04-06T09:57:33;101948.34;;;13.67;30.58
77081;BME280;66009;53.150;18.160;2023-04-06T10:00:09;101944.30;;;13.65;30.80
77081;BME280;66009;53.150;18.160;2023-04-06T10:02:45;101947.79;;;13.47;30.88
77081;BME280;66009;53.150;18.160;2023-04-06T10:05:15;101944.89;;;13.57;30.87
77081;BME280;66009;53.150;18.160;2023-04-06T10:07:44;101938.10;;;14.42;30.41
77081;BME280;66009;53.150;18.160;2023-04-06T10:10:12;101933.41;;;14.67;29.68
77081;BME280;66009;53.150;18.160;2023-04-06T10:12:47;101936.92;;;14.97;29.66
77081;BME280;66009;53.150;18.160;2023-04-06T10:15:17;101927.85;;;15.83;29.15
77081;BME280;66009;53.150;18.160;2023-04-06T10:17:45;101926.79;;;16.49;28.58
77081;BME280;66009;53.150;18.160;2023-04-06T10:25:37;101922.84;;;17.92;26.56
77081;BME280;66009;53.150;18.160;2023-04-06T10:28:09;101917.81;;;18.71;25.89
77081;BME280;66009;53.150;18.160;2023-04-06T10:30:42;101919.84;;;18.50;25.50
77081;BME280;66009;53.150;18.160;2023-04-06T10:33:18;101916.05;;;17.94;25.63
77081;BME280;66009;53.150;18.160;2023-04-06T10:35:45;101912.59;;;18.16;25.64
77081;BME280;66009;53.150;18.160;2023-04-06T10:38:12;101902.00;;;19.92;24.89
77081;BME280;66009;53.150;18.160;2023-04-06T10:40:41;101893.57;;;21.43;23.99
77081;BME280;66009;53.150;18.160;2023-04-06T10:43:13;101888.47;;;23.42;22.21
77081;BME280;66009;53.150;18.160;2023-04-06T10:45:40;101882.02;;;25.17;20.69
77081;BME280;66009;53.150;18.160;2023-04-06T10:48:19;101878.45;;;26.91;20.00
77081;BME280;66009;53.150;18.160;2023-04-06T10:50:50;101871.92;;;28.12;18.55
77081;BME280;66009;53.150;18.160;2023-04-06T10:53:27;101869.96;;;28.77;17.46
77081;BME280;66009;53.150;18.160;2023-04-06T10:55:55;101861.04;;;29.05;17.41
77081;BME280;66009;53.150;18.160;2023-04-06T10:58:26;101860.66;;;29.22;16.98
77081;BME280;66009;53.150;18.160;2023-04-06T11:00:54;101856.06;;;30.08;16.39
77081;BME280;66009;53.150;18.160;2023-04-06T11:03:21;101862.28;;;30.09;16.12
77081;BME280;66009;53.150;18.160;2023-04-06T11:05:50;101855.71;;;29.66;16.17
77081;BME280;66009;53.150;18.160;2023-04-06T11:08:33;101854.96;;;29.71;16.22
77081;BME280;66009;53.150;18.160;2023-04-06T11:11:11;101853.44;;;30.40;15.21
77081;BME280;66009;53.150;18.160;2023-04-06T11:13:43;101846.54;;;31.05;15.23
77081;BME280;66009;53.150;18.160;2023-04-06T11:16:30;101839.76;;;32.30;14.42
77081;BME280;66009;53.150;18.160;2023-04-06T11:19:00;101834.96;;;33.35;13.64
77081;BME280;66009;53.150;18.160;2023-04-06T11:21:34;101830.45;;;33.82;13.10
77081;BME280;66009;53.150;18.160;2023-04-06T11:26:42;101824.45;;;34.10;12.97
77081;BME280;66009;53.150;18.160;2023-04-06T11:29:11;101825.92;;;34.10;13.06
77081;BME280;66009;53.150;18.160;2023-04-06T11:31:46;101815.25;;;34.52;12.77
77081;BME280;66009;53.150;18.160;2023-04-06T11:34:18;101807.75;;;35.20;12.43
77081;BME280;66009;53.150;18.160;2023-04-06T11:36:47;101807.72;;;36.18;11.97
77081;BME280;66009;53.150;18.160;2023-04-06T11:39:19;101804.11;;;36.83;11.69
77081;BME280;66009;53.150;18.160;2023-04-06T11:41:53;101808.11;;;35.09;11.96
77081;BME280;66009;53.150;18.160;2023-04-06T11:44:29;101807.89;;;32.72;12.80
77081;BME280;66009;53.150;18.160;2023-04-06T11:46:58;101810.93;;;30.50;13.71
77081;BME280;66009;53.150;18.160;2023-04-06T11:49:28;101809.56;;;28.75;14.29
77081;BME280;66009;53.150;18.160;2023-04-06T11:51:56;101807.08;;;27.23;15.32
77081;BME280;66009;53.150;18.160;2023-04-06T11:54:33;101811.88;;;25.87;16.04
77081;BME280;66009;53.150;18.160;2023-04-06T11:57:04;101806.44;;;25.01;17.22
77081;BME280;66009;53.150;18.160;2023-04-06T11:59:32;101794.70;;;25.26;16.89
77081;BME280;66009;53.150;18.160;2023-04-06T12:01:59;101796.29;;;26.52;16.65
77081;BME280;66009;53.150;18.160;2023-04-06T12:04:26;101794.45;;;27.24;16.48
77081;BME280;66009;53.150;18.160;2023-04-06T12:06:55;101784.73;;;28.27;16.06
77081;BME280;66009;53.150;18.160;2023-04-06T12:09:21;101779.58;;;29.21;15.26
77081;BME280;66009;53.150;18.160;2023-04-06T12:11:48;101779.62;;;30.01;14.77
77081;BME280;66009;53.150;18.160;2023-04-06T12:14:15;101769.50;;;30.21;14.95
77081;BME280;66009;53.150;18.160;2023-04-06T12:16:42;101767.59;;;30.31;14.71
77081;BME280;66009;53.150;18.160;2023-04-06T12:19:09;101768.81;;;30.56;14.34
77081;BME280;66009;53.150;18.160;2023-04-06T12:21:36;101767.23;;;30.77;14.19
77081;BME280;66009;53.150;18.160;2023-04-06T12:24:04;101771.15;;;30.61;14.32
77081;BME280;66009;53.150;18.160;2023-04-06T12:26:32;101768.72;;;30.24;14.32
77081;BME280;66009;53.150;18.160;2023-04-06T12:28:59;101760.46;;;30.23;14.57
77081;BME280;66009;53.150;18.160;2023-04-06T12:31:35;101765.40;;;30.09;14.54
77081;BME280;66009;53.150;18.160;2023-04-06T12:34:02;101765.64;;;29.51;14.55
77081;BME280;66009;53.150;18.160;2023-04-06T12:36:29;101762.95;;;28.82;15.15
77081;BME280;66009;53.150;18.160;2023-04-06T12:38:57;101762.11;;;28.65;15.46
77081;BME280;66009;53.150;18.160;2023-04-06T12:41:24;101759.25;;;28.59;15.53
77081;BME280;66009;53.150;18.160;2023-04-06T12:43:51;101759.09;;;28.32;15.66
77081;BME280;66009;53.150;18.160;2023-04-06T12:46:18;101758.59;;;27.76;15.73
77081;BME280;66009;53.150;18.160;2023-04-06T12:48:45;101753.80;;;27.14;16.30
77081;BME280;66009;53.150;18.160;2023-04-06T12:51:12;101747.80;;;27.60;16.02
77081;BME280;66009;53.150;18.160;2023-04-06T12:53:39;101748.13;;;28.43;15.55
77081;BME280;66009;53.150;18.160;2023-04-06T12:56:17;101750.86;;;28.58;15.24
77081;BME280;66009;53.150;18.160;2023-04-06T12:58:45;101747.73;;;27.70;15.37